ASA639 KSJC-KSAN
Flight info
| Callsign | ASA639 |
|---|---|
| Flight time | 1h 3m |
| Altitude | 35000 |
| Route | SPTNS1 VLREE EBAYE AVE FIM J1 LAX COMIX2 |
| Aircraft | B739/M-SDE2E3FGHIRWXY/LB1 |
Departure
| Time | 2026-05-05 05:13 |
|---|---|
| Airport | Norman Y. Mineta San Jose International Airport (KSJC) |
Arrival
| Time | 2026-05-05 06:16 |
|---|---|
| Airport | San Diego International Airport (KSAN) |
| Time | Latitude | Longitude | Altitude | Speed | Heading |
|---|---|---|---|---|---|
| 2026-05-05 04:40 | 37.36175 | -121.92187 | 50 ft | 0 kts | 52° |
| 2026-05-05 05:02 | 37.36169 | -121.92197 | 45 ft | 2 kts | 51° |
| 2026-05-05 05:02 | 37.36159 | -121.92213 | 47 ft | 2 kts | 51° |
| 2026-05-05 05:03 | 37.36149 | -121.92229 | 50 ft | 2 kts | 56° |
| 2026-05-05 05:03 | 37.36142 | -121.92248 | 49 ft | 2 kts | 98° |
| 2026-05-05 05:03 | 37.36146 | -121.92260 | 49 ft | 1 kts | 145° |
| 2026-05-05 05:03 | 37.36149 | -121.92263 | 50 ft | 0 kts | 148° |
| 2026-05-05 05:07 | 37.36133 | -121.92251 | 50 ft | 6 kts | 148° |
| 2026-05-05 05:08 | 37.36092 | -121.92216 | 51 ft | 8 kts | 143° |
| 2026-05-05 05:08 | 37.36048 | -121.92168 | 50 ft | 9 kts | 137° |
| 2026-05-05 05:08 | 37.35997 | -121.92111 | 53 ft | 11 kts | 139° |
| 2026-05-05 05:08 | 37.35934 | -121.92045 | 56 ft | 12 kts | 139° |
| 2026-05-05 05:09 | 37.35876 | -121.91980 | 54 ft | 11 kts | 139° |
| 2026-05-05 05:09 | 37.35843 | -121.91944 | 56 ft | 0 kts | 138° |
| 2026-05-05 05:10 | 37.35824 | -121.91929 | 57 ft | 4 kts | 158° |
| 2026-05-05 05:10 | 37.35796 | -121.91931 | 55 ft | 4 kts | 205° |
| 2026-05-05 05:10 | 37.35780 | -121.91944 | 60 ft | 0 kts | 216° |
| 2026-05-05 05:11 | 37.35772 | -121.91952 | 55 ft | 6 kts | 219° |
| 2026-05-05 05:11 | 37.35718 | -121.92021 | 57 ft | 15 kts | 225° |
| 2026-05-05 05:11 | 37.35644 | -121.92115 | 61 ft | 15 kts | 229° |
| 2026-05-05 05:12 | 37.35589 | -121.92217 | 58 ft | 12 kts | 255° |
| 2026-05-05 05:12 | 37.35640 | -121.92302 | 54 ft | 16 kts | 316° |
| 2026-05-05 05:12 | 37.35937 | -121.92631 | 52 ft | 101 kts | 319° |
| 2026-05-05 05:12 | 37.36657 | -121.93409 | 59 ft | 170 kts | 319° |
| 2026-05-05 05:13 | 37.37618 | -121.94447 | 634 ft | 195 kts | 321° |
| 2026-05-05 05:13 | 37.38763 | -121.95633 | 1165 ft | 228 kts | 319° |
| 2026-05-05 05:13 | 37.39969 | -121.96962 | 2202 ft | 233 kts | 319° |
| 2026-05-05 05:13 | 37.41426 | -121.97874 | 3156 ft | 236 kts | 352° |
| 2026-05-05 05:14 | 37.43017 | -121.97636 | 4112 ft | 231 kts | 21° |
| 2026-05-05 05:14 | 37.44320 | -121.96492 | 4809 ft | 229 kts | 51° |
| 2026-05-05 05:14 | 37.45061 | -121.94743 | 4987 ft | 226 kts | 81° |
| 2026-05-05 05:14 | 37.45032 | -121.92807 | 5046 ft | 232 kts | 108° |
| 2026-05-05 05:15 | 37.44285 | -121.90958 | 5107 ft | 242 kts | 134° |
| 2026-05-05 05:15 | 37.43030 | -121.89499 | 5595 ft | 252 kts | 142° |
| 2026-05-05 05:15 | 37.41655 | -121.88052 | 6081 ft | 263 kts | 142° |
| 2026-05-05 05:15 | 37.40233 | -121.86567 | 6760 ft | 269 kts | 142° |
| 2026-05-05 05:16 | 37.38780 | -121.85045 | 7431 ft | 273 kts | 141° |
| 2026-05-05 05:16 | 37.37329 | -121.83516 | 8128 ft | 276 kts | 141° |
| 2026-05-05 05:16 | 37.35838 | -121.81942 | 8736 ft | 283 kts | 140° |
| 2026-05-05 05:16 | 37.34317 | -121.80335 | 9393 ft | 288 kts | 139° |
| 2026-05-05 05:17 | 37.32776 | -121.78705 | 10118 ft | 289 kts | 139° |
| 2026-05-05 05:17 | 37.31276 | -121.77050 | 10711 ft | 295 kts | 137° |
| 2026-05-05 05:17 | 37.29698 | -121.75259 | 10886 ft | 316 kts | 136° |
| 2026-05-05 05:17 | 37.28015 | -121.73336 | 11048 ft | 337 kts | 137° |
| 2026-05-05 05:18 | 37.26233 | -121.71299 | 11240 ft | 353 kts | 137° |
| 2026-05-05 05:18 | 37.24377 | -121.69190 | 11679 ft | 362 kts | 137° |
| 2026-05-05 05:18 | 37.22488 | -121.67049 | 12341 ft | 365 kts | 136° |
| 2026-05-05 05:18 | 37.20591 | -121.64900 | 12985 ft | 369 kts | 136° |
| 2026-05-05 05:19 | 37.18672 | -121.62727 | 13617 ft | 373 kts | 136° |
| 2026-05-05 05:19 | 37.16754 | -121.60555 | 14227 ft | 377 kts | 136° |
| 2026-05-05 05:19 | 37.14792 | -121.58339 | 14898 ft | 378 kts | 135° |
| 2026-05-05 05:19 | 37.12829 | -121.56121 | 15603 ft | 380 kts | 135° |
| 2026-05-05 05:20 | 37.10853 | -121.53890 | 16274 ft | 382 kts | 135° |
| 2026-05-05 05:20 | 37.08897 | -121.51682 | 16919 ft | 385 kts | 135° |
| 2026-05-05 05:20 | 37.06901 | -121.49436 | 17612 ft | 385 kts | 135° |
| 2026-05-05 05:20 | 37.04878 | -121.47208 | 18208 ft | 388 kts | 136° |
| 2026-05-05 05:21 | 37.02806 | -121.44988 | 18764 ft | 392 kts | 136° |
| 2026-05-05 05:21 | 37.00707 | -121.42759 | 19261 ft | 396 kts | 136° |
| 2026-05-05 05:21 | 36.98617 | -121.40545 | 19754 ft | 399 kts | 136° |
| 2026-05-05 05:21 | 36.96489 | -121.38290 | 20279 ft | 402 kts | 135° |
| 2026-05-05 05:22 | 36.94335 | -121.36004 | 20802 ft | 405 kts | 135° |
| 2026-05-05 05:22 | 36.92169 | -121.33702 | 21329 ft | 408 kts | 135° |
| 2026-05-05 05:22 | 36.90033 | -121.31432 | 21924 ft | 409 kts | 135° |
| 2026-05-05 05:22 | 36.87837 | -121.29095 | 22306 ft | 415 kts | 135° |
| 2026-05-05 05:23 | 36.85654 | -121.26776 | 22753 ft | 418 kts | 135° |
| 2026-05-05 05:23 | 36.83422 | -121.24409 | 23257 ft | 420 kts | 134° |
| 2026-05-05 05:23 | 36.81202 | -121.22054 | 23726 ft | 423 kts | 134° |
| 2026-05-05 05:23 | 36.78934 | -121.19649 | 24099 ft | 427 kts | 134° |
| 2026-05-05 05:24 | 36.76659 | -121.17241 | 24513 ft | 429 kts | 134° |
| 2026-05-05 05:24 | 36.74395 | -121.14847 | 25028 ft | 428 kts | 134° |
| 2026-05-05 05:24 | 36.72133 | -121.12456 | 25447 ft | 430 kts | 134° |
| 2026-05-05 05:24 | 36.69841 | -121.10032 | 25799 ft | 434 kts | 133° |
| 2026-05-05 05:25 | 36.67526 | -121.07587 | 26155 ft | 436 kts | 133° |
| 2026-05-05 05:25 | 36.65192 | -121.05123 | 26536 ft | 439 kts | 133° |
| 2026-05-05 05:25 | 36.62847 | -121.02652 | 26925 ft | 441 kts | 133° |
| 2026-05-05 05:25 | 36.60520 | -121.00205 | 27331 ft | 444 kts | 133° |
| 2026-05-05 05:26 | 36.58140 | -120.97754 | 28036 ft | 439 kts | 133° |
| 2026-05-05 05:26 | 36.55763 | -120.95340 | 28369 ft | 443 kts | 134° |
| 2026-05-05 05:26 | 36.53350 | -120.92895 | 28533 ft | 449 kts | 134° |
| 2026-05-05 05:26 | 36.50945 | -120.90461 | 28826 ft | 453 kts | 134° |
| 2026-05-05 05:27 | 36.48496 | -120.87986 | 29311 ft | 452 kts | 133° |
| 2026-05-05 05:27 | 36.46062 | -120.85526 | 29906 ft | 449 kts | 133° |
| 2026-05-05 05:27 | 36.41239 | -120.80646 | 30642 ft | 449 kts | 134° |
| 2026-05-05 05:28 | 36.38808 | -120.78182 | 30882 ft | 452 kts | 134° |
| 2026-05-05 05:28 | 36.36362 | -120.75706 | 31170 ft | 453 kts | 134° |
| 2026-05-05 05:28 | 36.33913 | -120.73229 | 31490 ft | 454 kts | 135° |
| 2026-05-05 05:28 | 36.31490 | -120.70782 | 31797 ft | 455 kts | 135° |
| 2026-05-05 05:29 | 36.29030 | -120.68298 | 32079 ft | 456 kts | 135° |
| 2026-05-05 05:29 | 36.26558 | -120.65805 | 32385 ft | 457 kts | 136° |
| 2026-05-05 05:29 | 36.24074 | -120.63303 | 32658 ft | 459 kts | 137° |
| 2026-05-05 05:29 | 36.21622 | -120.60834 | 32952 ft | 459 kts | 137° |
| 2026-05-05 05:30 | 36.19134 | -120.58332 | 33283 ft | 460 kts | 137° |
| 2026-05-05 05:30 | 36.16647 | -120.55833 | 33582 ft | 460 kts | 138° |
| 2026-05-05 05:30 | 36.14148 | -120.53325 | 33850 ft | 461 kts | 138° |
| 2026-05-05 05:30 | 36.11648 | -120.50816 | 34105 ft | 462 kts | 139° |
| 2026-05-05 05:31 | 36.09178 | -120.48338 | 34363 ft | 461 kts | 140° |
| 2026-05-05 05:31 | 36.06682 | -120.45838 | 34655 ft | 460 kts | 140° |
| 2026-05-05 05:31 | 36.04189 | -120.43343 | 34903 ft | 460 kts | 140° |
| 2026-05-05 05:31 | 36.01717 | -120.40872 | 35040 ft | 462 kts | 140° |
| 2026-05-05 05:32 | 35.96705 | -120.35863 | 35028 ft | 461 kts | 141° |
| 2026-05-05 05:32 | 35.91732 | -120.30900 | 35031 ft | 457 kts | 141° |
| 2026-05-05 05:33 | 35.86838 | -120.26010 | 35023 ft | 454 kts | 139° |
| 2026-05-05 05:33 | 35.82349 | -120.20515 | 35028 ft | 453 kts | 133° |
| 2026-05-05 05:34 | 35.78030 | -120.14856 | 35028 ft | 453 kts | 134° |
| 2026-05-05 05:34 | 35.73681 | -120.09262 | 35026 ft | 455 kts | 135° |
| 2026-05-05 05:35 | 35.69275 | -120.03667 | 35027 ft | 457 kts | 136° |
| 2026-05-05 05:35 | 35.64797 | -119.98050 | 35024 ft | 460 kts | 139° |
| 2026-05-05 05:36 | 35.59696 | -119.93352 | 35013 ft | 460 kts | 147° |
| 2026-05-05 05:36 | 35.54391 | -119.88874 | 35019 ft | 461 kts | 147° |
| 2026-05-05 05:37 | 35.49131 | -119.84402 | 35020 ft | 462 kts | 147° |
| 2026-05-05 05:37 | 35.43850 | -119.79865 | 35012 ft | 462 kts | 147° |
| 2026-05-05 05:38 | 35.38599 | -119.75341 | 35010 ft | 461 kts | 148° |
| 2026-05-05 05:38 | 35.33350 | -119.70826 | 35000 ft | 459 kts | 148° |
| 2026-05-05 05:39 | 35.28144 | -119.66356 | 35008 ft | 458 kts | 148° |
| 2026-05-05 05:39 | 35.22869 | -119.61837 | 35016 ft | 465 kts | 148° |
| 2026-05-05 05:40 | 35.17545 | -119.57284 | 35007 ft | 467 kts | 148° |
| 2026-05-05 05:40 | 35.12241 | -119.52753 | 35000 ft | 467 kts | 149° |
| 2026-05-05 05:41 | 35.06902 | -119.48198 | 34995 ft | 466 kts | 149° |
| 2026-05-05 05:41 | 35.01602 | -119.43684 | 35003 ft | 466 kts | 149° |
| 2026-05-05 05:42 | 34.96278 | -119.39160 | 35010 ft | 465 kts | 149° |
| 2026-05-05 05:42 | 34.90982 | -119.34665 | 35007 ft | 465 kts | 149° |
| 2026-05-05 05:43 | 34.85670 | -119.30164 | 35010 ft | 464 kts | 150° |
| 2026-05-05 05:43 | 34.81249 | -119.26423 | 35016 ft | 464 kts | 150° |
| 2026-05-05 05:44 | 34.75925 | -119.21923 | 35009 ft | 464 kts | 150° |
| 2026-05-05 05:44 | 34.70649 | -119.17475 | 35029 ft | 462 kts | 150° |
| 2026-05-05 05:45 | 34.65390 | -119.13045 | 35036 ft | 462 kts | 150° |
| 2026-05-05 05:45 | 34.60088 | -119.08586 | 35033 ft | 461 kts | 151° |
| 2026-05-05 05:46 | 34.54840 | -119.04179 | 35032 ft | 461 kts | 151° |
| 2026-05-05 05:46 | 34.49543 | -118.99739 | 35030 ft | 460 kts | 152° |
| 2026-05-05 05:47 | 34.44276 | -118.95321 | 35033 ft | 460 kts | 152° |
| 2026-05-05 05:47 | 34.39051 | -118.90957 | 35043 ft | 459 kts | 152° |
| 2026-05-05 05:48 | 34.33846 | -118.86382 | 35048 ft | 463 kts | 147° |
| 2026-05-05 05:48 | 34.29018 | -118.81220 | 35038 ft | 466 kts | 146° |
| 2026-05-05 05:49 | 34.24220 | -118.75985 | 35037 ft | 465 kts | 146° |
| 2026-05-05 05:49 | 34.19358 | -118.70767 | 35042 ft | 465 kts | 146° |
| 2026-05-05 05:50 | 34.14530 | -118.65637 | 35005 ft | 465 kts | 148° |
| 2026-05-05 05:50 | 34.09660 | -118.60481 | 35044 ft | 465 kts | 148° |
| 2026-05-05 05:51 | 34.04784 | -118.55323 | 35055 ft | 465 kts | 148° |
| 2026-05-05 05:51 | 33.99938 | -118.50196 | 35050 ft | 465 kts | 148° |
| 2026-05-05 05:52 | 33.95030 | -118.45020 | 34433 ft | 471 kts | 149° |
| 2026-05-05 05:52 | 33.92608 | -118.42402 | 34281 ft | 465 kts | 146° |
| 2026-05-05 05:52 | 33.90410 | -118.39650 | 34153 ft | 457 kts | 143° |
| 2026-05-05 05:53 | 33.88293 | -118.36839 | 33985 ft | 447 kts | 143° |
| 2026-05-05 05:53 | 33.86187 | -118.34033 | 33959 ft | 452 kts | 144° |
| 2026-05-05 05:53 | 33.81907 | -118.28440 | 33802 ft | 460 kts | 144° |
| 2026-05-05 05:54 | 33.79735 | -118.25629 | 33319 ft | 456 kts | 145° |
| 2026-05-05 05:54 | 33.77574 | -118.22834 | 32693 ft | 454 kts | 145° |
| 2026-05-05 05:54 | 33.75428 | -118.20044 | 32001 ft | 454 kts | 144° |
| 2026-05-05 05:54 | 33.73291 | -118.17238 | 31379 ft | 451 kts | 143° |
| 2026-05-05 05:55 | 33.71378 | -118.14716 | 30908 ft | 447 kts | 143° |
| 2026-05-05 05:55 | 33.69427 | -118.12146 | 30279 ft | 447 kts | 142° |
| 2026-05-05 05:55 | 33.67327 | -118.09389 | 29477 ft | 447 kts | 142° |
| 2026-05-05 05:55 | 33.65229 | -118.06638 | 28645 ft | 447 kts | 141° |
| 2026-05-05 05:56 | 33.63127 | -118.03882 | 27833 ft | 446 kts | 141° |
| 2026-05-05 05:56 | 33.61027 | -118.01132 | 27050 ft | 445 kts | 141° |
| 2026-05-05 05:56 | 33.58958 | -117.98423 | 26289 ft | 444 kts | 140° |
| 2026-05-05 05:56 | 33.56875 | -117.95698 | 25531 ft | 435 kts | 140° |
| 2026-05-05 05:57 | 33.54841 | -117.93050 | 24794 ft | 424 kts | 140° |
| 2026-05-05 05:57 | 33.52814 | -117.90608 | 24103 ft | 414 kts | 142° |
| 2026-05-05 05:57 | 33.50742 | -117.88240 | 23396 ft | 405 kts | 142° |
| 2026-05-05 05:57 | 33.48710 | -117.85933 | 22656 ft | 396 kts | 142° |
| 2026-05-05 05:58 | 33.46759 | -117.83695 | 21953 ft | 389 kts | 141° |
| 2026-05-05 05:58 | 33.44830 | -117.81466 | 21296 ft | 381 kts | 141° |
| 2026-05-05 05:58 | 33.42934 | -117.79293 | 20641 ft | 373 kts | 143° |
| 2026-05-05 05:58 | 33.41014 | -117.77221 | 20065 ft | 368 kts | 144° |
| 2026-05-05 05:59 | 33.39118 | -117.75225 | 19662 ft | 364 kts | 144° |
| 2026-05-05 05:59 | 33.37208 | -117.73218 | 19193 ft | 362 kts | 144° |
| 2026-05-05 05:59 | 33.35322 | -117.71226 | 18745 ft | 361 kts | 144° |
| 2026-05-05 05:59 | 33.33433 | -117.69220 | 18255 ft | 361 kts | 143° |
| 2026-05-05 06:00 | 33.31586 | -117.67253 | 17762 ft | 359 kts | 143° |
| 2026-05-05 06:00 | 33.29719 | -117.65260 | 17266 ft | 357 kts | 143° |
| 2026-05-05 06:00 | 33.27861 | -117.63279 | 16793 ft | 356 kts | 143° |
| 2026-05-05 06:00 | 33.26024 | -117.61322 | 16377 ft | 352 kts | 143° |
| 2026-05-05 06:01 | 33.24207 | -117.59392 | 15891 ft | 351 kts | 143° |
| 2026-05-05 06:01 | 33.22371 | -117.57458 | 15450 ft | 350 kts | 143° |
| 2026-05-05 06:01 | 33.20545 | -117.55538 | 15019 ft | 348 kts | 142° |
| 2026-05-05 06:01 | 33.18729 | -117.53628 | 14592 ft | 346 kts | 142° |
| 2026-05-05 06:02 | 33.16942 | -117.51749 | 14173 ft | 345 kts | 142° |
| 2026-05-05 06:02 | 33.15142 | -117.49858 | 13749 ft | 344 kts | 142° |
| 2026-05-05 06:02 | 33.13333 | -117.47996 | 13346 ft | 339 kts | 145° |
| 2026-05-05 06:02 | 33.11428 | -117.46337 | 12550 ft | 342 kts | 149° |
| 2026-05-05 06:03 | 33.09495 | -117.44781 | 12293 ft | 325 kts | 149° |
| 2026-05-05 06:03 | 33.07655 | -117.43285 | 12079 ft | 316 kts | 149° |
| 2026-05-05 06:03 | 33.05861 | -117.41808 | 11862 ft | 309 kts | 149° |
| 2026-05-05 06:03 | 33.04123 | -117.40364 | 11547 ft | 306 kts | 149° |
| 2026-05-05 06:04 | 33.02383 | -117.38907 | 11204 ft | 305 kts | 149° |
| 2026-05-05 06:04 | 33.00651 | -117.37454 | 10856 ft | 303 kts | 148° |
| 2026-05-05 06:04 | 32.98924 | -117.36003 | 10518 ft | 302 kts | 148° |
| 2026-05-05 06:04 | 32.97210 | -117.34565 | 10215 ft | 299 kts | 148° |
| 2026-05-05 06:05 | 32.95532 | -117.33157 | 10075 ft | 290 kts | 149° |
| 2026-05-05 06:05 | 32.93912 | -117.31799 | 9829 ft | 286 kts | 148° |
| 2026-05-05 06:05 | 32.92305 | -117.30454 | 9711 ft | 276 kts | 148° |
| 2026-05-05 06:05 | 32.90730 | -117.29140 | 9477 ft | 272 kts | 149° |
| 2026-05-05 06:06 | 32.89196 | -117.27865 | 9164 ft | 271 kts | 149° |
| 2026-05-05 06:06 | 32.87654 | -117.26584 | 8847 ft | 270 kts | 148° |
| 2026-05-05 06:06 | 32.86112 | -117.25304 | 8541 ft | 269 kts | 148° |
| 2026-05-05 06:06 | 32.84577 | -117.24030 | 8232 ft | 269 kts | 148° |
| 2026-05-05 06:07 | 32.83039 | -117.22753 | 7908 ft | 268 kts | 148° |
| 2026-05-05 06:07 | 32.81586 | -117.21412 | 7603 ft | 270 kts | 134° |
| 2026-05-05 06:07 | 32.80733 | -117.19416 | 7313 ft | 273 kts | 108° |
| 2026-05-05 06:07 | 32.80250 | -117.17215 | 7003 ft | 273 kts | 106° |
| 2026-05-05 06:08 | 32.79787 | -117.15056 | 6691 ft | 273 kts | 106° |
| 2026-05-05 06:08 | 32.79312 | -117.12871 | 6386 ft | 273 kts | 106° |
| 2026-05-05 06:08 | 32.78834 | -117.10704 | 6205 ft | 266 kts | 107° |
| 2026-05-05 06:08 | 32.78365 | -117.08595 | 6077 ft | 259 kts | 107° |
| 2026-05-05 06:09 | 32.77917 | -117.06589 | 5998 ft | 248 kts | 107° |
| 2026-05-05 06:09 | 32.77459 | -117.04648 | 5794 ft | 239 kts | 108° |
| 2026-05-05 06:09 | 32.77004 | -117.02785 | 5603 ft | 229 kts | 108° |
| 2026-05-05 06:09 | 32.76570 | -117.01014 | 5383 ft | 220 kts | 108° |
| 2026-05-05 06:10 | 32.76152 | -116.99305 | 5209 ft | 211 kts | 108° |
| 2026-05-05 06:10 | 32.75688 | -116.97702 | 4991 ft | 200 kts | 120° |
| 2026-05-05 06:10 | 32.74850 | -116.96472 | 4815 ft | 188 kts | 143° |
| 2026-05-05 06:10 | 32.73754 | -116.95663 | 4551 ft | 184 kts | 166° |
| 2026-05-05 06:11 | 32.72514 | -116.95410 | 4358 ft | 177 kts | 184° |
| 2026-05-05 06:11 | 32.71334 | -116.95633 | 4146 ft | 171 kts | 203° |
| 2026-05-05 06:11 | 32.70295 | -116.96283 | 3949 ft | 168 kts | 219° |
| 2026-05-05 06:11 | 32.69482 | -116.97281 | 3784 ft | 168 kts | 235° |
| 2026-05-05 06:12 | 32.68949 | -116.98540 | 3513 ft | 172 kts | 255° |
| 2026-05-05 06:12 | 32.68816 | -116.99932 | 3334 ft | 168 kts | 271° |
| 2026-05-05 06:12 | 32.69033 | -117.01268 | 3097 ft | 161 kts | 284° |
| 2026-05-05 06:12 | 32.69335 | -117.02494 | 2950 ft | 155 kts | 284° |
| 2026-05-05 06:13 | 32.69647 | -117.03759 | 2775 ft | 161 kts | 284° |
| 2026-05-05 06:13 | 32.69960 | -117.05021 | 2572 ft | 156 kts | 284° |
| 2026-05-05 06:13 | 32.70260 | -117.06238 | 2341 ft | 151 kts | 284° |
| 2026-05-05 06:13 | 32.70552 | -117.07428 | 2109 ft | 149 kts | 284° |
| 2026-05-05 06:14 | 32.70837 | -117.08591 | 1881 ft | 147 kts | 284° |
| 2026-05-05 06:14 | 32.71122 | -117.09757 | 1661 ft | 148 kts | 284° |
| 2026-05-05 06:14 | 32.71411 | -117.10940 | 1431 ft | 149 kts | 284° |
| 2026-05-05 06:14 | 32.71697 | -117.12119 | 1195 ft | 147 kts | 285° |
| 2026-05-05 06:15 | 32.71978 | -117.13272 | 968 ft | 145 kts | 284° |
| 2026-05-05 06:15 | 32.72251 | -117.14400 | 752 ft | 141 kts | 284° |
| 2026-05-05 06:15 | 32.72530 | -117.15541 | 578 ft | 144 kts | 284° |
| 2026-05-05 06:15 | 32.72802 | -117.16660 | 317 ft | 140 kts | 283° |
| 2026-05-05 06:16 | 32.73063 | -117.17754 | 102 ft | 135 kts | 283° |
| 2026-05-05 06:16 | 32.73316 | -117.18823 | 24 ft | 121 kts | 285° |
| 2026-05-05 06:16 | 32.73447 | -117.19369 | 26 ft | 30 kts | 287° |
| 2026-05-05 06:16 | 32.73501 | -117.19588 | 26 ft | 27 kts | 286° |
| 2026-05-05 06:17 | 32.73531 | -117.19725 | 29 ft | 11 kts | 277° |
| 2026-05-05 06:17 | 32.73520 | -117.19802 | 28 ft | 8 kts | 249° |
| 2026-05-05 06:17 | 32.73500 | -117.19865 | 26 ft | 8 kts | 250° |
| 2026-05-05 06:17 | 32.73479 | -117.19920 | 26 ft | 7 kts | 234° |
| 2026-05-05 06:18 | 32.73440 | -117.19951 | 28 ft | 7 kts | 198° |
| 2026-05-05 06:18 | 32.73394 | -117.19966 | 27 ft | 7 kts | 195° |
| 2026-05-05 06:18 | 32.73362 | -117.19977 | 26 ft | 2 kts | 196° |
| 2026-05-05 06:18 | 32.73354 | -117.19990 | 28 ft | 2 kts | 247° |
| 2026-05-05 06:19 | 32.73352 | -117.20006 | 26 ft | 2 kts | 261° |
| 2026-05-05 06:19 | 32.73350 | -117.20022 | 25 ft | 2 kts | 261° |
| 2026-05-05 06:19 | 32.73348 | -117.20039 | 25 ft | 2 kts | 262° |
| 2026-05-05 06:19 | 32.73346 | -117.20052 | 26 ft | 0 kts | 261° |